Time;durP1;ratioP1;P1;durP2;ratioP2;P2;SDS_P1;SDS_P2;PMS_P1;PMS_P2;Temp;Humidity;BMP_temperature;BMP_pressure;BME280_temperature;BME280_humidity;BME280_pressure;Samples;Min_cycle;Max_cycle;Signal;HPM_P1;HPM_P2
2023/06/18 00:01:03;;;;;;;13.05;8.80;;;;;;;22.37;44.49;99655.25;4992038;28;20054;-78
2023/06/18 00:03:30;;;;;;;11.63;8.82;;;;;;;22.34;44.52;99657.41;4992123;28;20477;-79
2023/06/18 00:05:56;;;;;;;11.45;9.05;;;;;;;22.29;44.73;99667.78;4991828;28;20054;-78
2023/06/18 00:08:23;;;;;;;14.23;9.05;;;;;;;22.24;44.89;99660.25;4974738;28;20137;-78
2023/06/18 00:10:49;;;;;;;13.90;8.80;;;;;;;22.20;44.81;99664.28;4992057;28;20597;-79
2023/06/18 00:13:16;;;;;;;14.90;9.68;;;;;;;22.17;44.97;99667.28;4992030;28;20532;-79
2023/06/18 00:15:43;;;;;;;14.77;9.35;;;;;;;22.13;44.99;99664.09;4991476;28;20443;-79
2023/06/18 00:18:09;;;;;;;13.32;9.07;;;;;;;22.10;44.92;99656.38;4991681;28;20418;-79
2023/06/18 00:20:36;;;;;;;14.68;9.60;;;;;;;22.05;44.89;99656.03;4974369;28;20057;-79
2023/06/18 00:23:02;;;;;;;13.57;9.85;;;;;;;22.02;45.41;99659.03;4992127;28;20054;-79
2023/06/18 00:25:29;;;;;;;14.48;8.77;;;;;;;21.98;45.59;99653.19;4991290;28;20066;-80
2023/06/18 00:27:55;;;;;;;13.23;9.50;;;;;;;21.93;45.52;99656.34;4974351;28;20054;-79
2023/06/18 00:30:22;;;;;;;14.23;9.27;;;;;;;21.91;45.94;99657.53;4991625;28;20055;-80
2023/06/18 00:32:49;;;;;;;14.27;8.82;;;;;;;21.89;46.17;99656.81;4991637;28;20069;-79
2023/06/18 00:35:15;;;;;;;13.80;9.18;;;;;;;21.87;46.05;99657.03;4974259;28;20059;-80
2023/06/18 00:37:45;;;;;;;14.73;9.20;;;;;;;21.87;46.31;99659.69;4991194;28;20050;-79
2023/06/18 00:40:14;;;;;;;12.63;8.65;;;;;;;21.84;46.83;99658.19;4973957;28;20058;-79
2023/06/18 00:42:42;;;;;;;13.63;9.07;;;;;;;21.86;46.55;99660.69;4992043;28;20058;-79
2023/06/18 00:45:09;;;;;;;10.80;8.63;;;;;;;21.87;46.56;99659.69;4991308;28;20050;-79
2023/06/18 00:47:36;;;;;;;15.50;9.45;;;;;;;21.88;46.79;99656.00;4974023;28;20077;-79
2023/06/18 00:50:05;;;;;;;16.15;9.65;;;;;;;21.87;46.73;99652.47;4991623;28;20082;-78
2023/06/18 00:52:36;;;;;;;14.02;9.05;;;;;;;21.87;47.70;99657.84;4991470;28;20133;-79
2023/06/18 00:55:03;;;;;;;14.35;8.40;;;;;;;21.89;46.70;99651.47;4991424;28;20051;-78
2023/06/18 00:57:31;;;;;;;14.65;9.57;;;;;;;21.87;46.88;99651.66;4990858;28;20429;-79
2023/06/18 00:59:57;;;;;;;13.80;9.25;;;;;;;21.87;47.20;99657.84;4990947;28;20505;-79
2023/06/18 01:02:25;;;;;;;15.68;9.25;;;;;;;21.86;47.09;99656.16;4991670;28;20054;-78
2023/06/18 01:04:59;;;;;;;15.43;10.07;;;;;;;21.85;47.22;99659.00;4991343;28;20093;-78
2023/06/18 01:07:26;;;;;;;12.60;8.98;;;;;;;21.83;47.34;99656.50;4991328;28;20061;-78
2023/06/18 01:09:56;;;;;;;14.70;9.77;;;;;;;21.82;47.54;99653.97;4973945;28;20138;-78
2023/06/18 01:12:27;;;;;;;13.80;9.65;;;;;;;21.82;47.71;99649.47;4994964;28;20058;-78
2023/06/18 01:14:55;;;;;;;15.63;10.20;;;;;;;21.82;47.60;99652.13;4995436;28;20077;-79
2023/06/18 01:17:23;;;;;;;13.52;8.57;;;;;;;21.81;47.77;99658.50;4995198;28;20051;-79
2023/06/18 01:19:56;;;;;;;13.10;9.70;;;;;;;21.78;48.53;99652.63;4994916;28;20128;-79
2023/06/18 01:22:40;;;;;;;13.88;8.75;;;;;;;21.79;48.40;99654.31;4994757;28;20414;-79
2023/06/18 01:25:07;;;;;;;15.13;9.32;;;;;;;21.81;48.04;99654.97;4995043;28;20125;-79
2023/06/18 01:27:40;;;;;;;17.13;10.10;;;;;;;21.78;48.40;99642.75;4995053;28;20054;-79
2023/06/18 01:30:11;;;;;;;14.63;10.77;;;;;;;21.78;48.75;99648.09;4994998;28;20046;-79
2023/06/18 01:32:38;;;;;;;16.92;11.00;;;;;;;21.79;48.13;99643.59;4994715;28;20523;-78
2023/06/18 01:35:06;;;;;;;19.05;9.90;;;;;;;21.77;48.34;99642.91;4994676;28;20120;-79
2023/06/18 01:38:09;;;;;;;15.45;11.07;;;;;;;21.70;48.65;99640.88;4994296;28;20046;-79
2023/06/18 01:40:45;;;;;;;13.48;10.38;;;;;;;21.70;48.91;99635.50;4994659;28;20054;-79
2023/06/18 01:43:29;;;;;;;15.05;10.23;;;;;;;21.70;49.01;99631.97;4994513;28;20061;-79
2023/06/18 01:46:03;;;;;;;15.13;10.20;;;;;;;21.65;48.98;99629.81;4994681;28;20054;-78
2023/06/18 01:48:58;;;;;;;13.55;10.00;;;;;;;21.58;48.45;99624.25;4994486;28;20476;-78
2023/06/18 01:51:27;;;;;;;16.17;10.35;;;;;;;21.60;48.56;99627.59;4991488;28;20058;-78
2023/06/18 01:53:56;;;;;;;14.88;10.55;;;;;;;21.57;48.66;99630.59;4994403;28;20137;-78
2023/06/18 01:56:23;;;;;;;14.18;10.70;;;;;;;21.56;48.69;99628.09;4977110;28;20090;-78
2023/06/18 01:58:50;;;;;;;13.15;9.90;;;;;;;21.53;48.85;99623.88;4994399;28;20141;-78
2023/06/18 02:01:20;;;;;;;11.90;9.45;;;;;;;21.50;48.62;99634.94;4994373;28;20058;-79
2023/06/18 02:03:47;;;;;;;11.85;9.80;;;;;;;21.50;48.71;99623.38;4993648;28;20100;-78
2023/06/18 02:06:13;;;;;;;14.95;10.50;;;;;;;21.46;48.88;99626.38;4993981;28;20424;-79
2023/06/18 02:08:40;;;;;;;13.63;9.48;;;;;;;21.45;49.00;99624.72;4994132;28;20062;-78
2023/06/18 02:11:07;;;;;;;12.90;9.52;;;;;;;21.42;49.11;99625.03;4994356;28;20057;-79
2023/06/18 02:13:34;;;;;;;13.10;9.52;;;;;;;21.41;48.96;99618.00;4993909;28;20058;-79
2023/06/18 02:16:00;;;;;;;12.80;9.55;;;;;;;21.38;48.98;99621.00;4993999;28;20523;-79
2023/06/18 02:18:27;;;;;;;10.90;8.43;;;;;;;21.38;48.90;99615.63;4993952;28;20062;-79
2023/06/18 02:20:53;;;;;;;13.48;9.13;;;;;;;21.35;48.75;99616.81;4993908;28;20116;-78
2023/06/18 02:23:19;;;;;;;13.90;9.43;;;;;;;21.33;48.89;99612.63;4992613;28;20054;-78
2023/06/18 02:25:47;;;;;;;14.18;8.98;;;;;;;21.30;48.66;99627.16;4993997;28;20144;-79
2023/06/18 02:28:14;;;;;;;16.27;10.13;;;;;;;21.29;48.84;99632.69;4993934;28;20092;-79
2023/06/18 02:30:40;;;;;;;14.77;10.13;;;;;;;21.24;49.28;99619.78;4993874;28;20050;-79
2023/06/18 02:33:06;;;;;;;14.38;10.27;;;;;;;21.22;49.40;99622.63;4993650;28;20061;-79
2023/06/18 02:35:34;;;;;;;15.32;10.02;;;;;;;21.18;49.54;99626.63;4993542;28;20054;-78
2023/06/18 02:38:00;;;;;;;16.63;10.20;;;;;;;21.14;49.46;99622.59;4993726;28;20058;-78
2023/06/18 02:40:27;;;;;;;13.27;9.35;;;;;;;21.13;49.89;99617.38;4993433;28;20539;-79
2023/06/18 02:42:54;;;;;;;15.80;10.27;;;;;;;21.08;49.23;99617.84;4993697;28;20456;-78
2023/06/18 02:45:23;;;;;;;15.45;10.15;;;;;;;21.07;49.58;99624.22;4993086;28;20061;-78
2023/06/18 02:47:50;;;;;;;15.02;10.73;;;;;;;21.05;49.66;99626.22;4993959;28;20062;-79
2023/06/18 02:50:18;;;;;;;16.77;10.88;;;;;;;20.98;49.55;99623.34;4993373;28;20055;-78
2023/06/18 02:52:46;;;;;;;18.67;11.60;;;;;;;20.92;50.01;99618.59;4993551;28;20057;-78
2023/06/18 02:55:13;;;;;;;16.92;11.73;;;;;;;20.87;50.38;99616.44;4993262;28;20497;-78
2023/06/18 02:57:41;;;;;;;16.33;11.40;;;;;;;20.81;50.65;99617.00;4993279;28;20436;-79
2023/06/18 03:00:12;;;;;;;16.45;12.70;;;;;;;20.76;51.25;99612.16;4993645;28;20056;-78
2023/06/18 03:02:44;;;;;;;19.33;12.40;;;;;;;20.73;51.09;99611.59;4993140;28;20114;-78
2023/06/18 03:05:10;;;;;;;17.75;11.77;;;;;;;20.70;50.99;99610.09;4975708;28;20058;-78
2023/06/18 03:07:37;;;;;;;18.92;11.52;;;;;;;20.67;51.21;99610.44;4993219;28;20112;-78
2023/06/18 03:10:04;;;;;;;15.13;12.20;;;;;;;20.63;51.50;99606.38;4993326;28;20054;-78
2023/06/18 03:12:30;;;;;;;20.40;12.25;;;;;;;20.61;51.32;99603.88;4993224;28;20141;-78
2023/06/18 03:14:57;;;;;;;16.52;11.60;;;;;;;20.59;51.79;99605.84;4992871;28;20130;-77
2023/06/18 03:17:23;;;;;;;23.35;12.75;;;;;;;20.57;51.52;99607.84;4993581;28;20420;-78
2023/06/18 03:19:50;;;;;;;17.77;12.00;;;;;;;20.55;51.77;99610.66;4993032;28;20062;-78
2023/06/18 03:22:18;;;;;;;17.35;12.73;;;;;;;20.53;52.14;99612.66;4992970;28;20478;-79
2023/06/18 03:24:45;;;;;;;20.95;12.70;;;;;;;20.52;51.88;99605.63;4975158;28;20054;-79
2023/06/18 03:27:11;;;;;;;18.00;12.77;;;;;;;20.52;52.22;99605.63;4992406;28;20065;-78
2023/06/18 03:29:38;;;;;;;19.30;12.63;;;;;;;20.50;52.22;99607.63;4992350;28;20057;-78
2023/06/18 03:32:05;;;;;;;21.02;12.57;;;;;;;20.48;52.32;99608.78;4992918;28;20050;-78
2023/06/18 03:34:33;;;;;;;21.95;13.30;;;;;;;20.48;52.34;99606.13;4992489;28;20062;-78
2023/06/18 03:37:00;;;;;;;20.13;13.25;;;;;;;20.46;52.52;99602.75;4992179;28;20050;-78
2023/06/18 03:39:27;;;;;;;17.58;12.85;;;;;;;20.45;52.44;99599.25;4992516;28;20089;-78
2023/06/18 03:41:53;;;;;;;19.00;13.02;;;;;;;20.42;52.67;99602.22;4992409;28;20050;-78
2023/06/18 03:44:20;;;;;;;18.98;13.15;;;;;;;20.40;52.53;99596.19;4992488;28;20061;-78
2023/06/18 03:46:46;;;;;;;17.73;11.85;;;;;;;20.40;52.72;99610.41;4992090;28;20070;-79
2023/06/18 03:49:13;;;;;;;20.00;13.57;;;;;;;20.39;52.73;99605.19;4992573;28;20082;-78
2023/06/18 03:51:39;;;;;;;23.08;13.25;;;;;;;20.37;53.08;99604.53;4992444;28;20056;-79
2023/06/18 03:54:06;;;;;;;22.38;12.73;;;;;;;20.35;52.81;99609.19;4992388;28;20058;-78
2023/06/18 03:56:33;;;;;;;18.10;12.30;;;;;;;20.34;53.13;99603.00;4991594;28;20058;-78
2023/06/18 03:58:59;;;;;;;18.77;12.88;;;;;;;20.33;53.22;99606.66;4991966;28;20062;-78
2023/06/18 04:01:27;;;;;;;22.52;13.35;;;;;;;20.31;53.19;99609.47;4992094;28;20072;-78
2023/06/18 04:03:53;;;;;;;19.35;12.38;;;;;;;20.31;53.20;99612.16;4992287;28;20058;-78
2023/06/18 04:06:20;;;;;;;16.20;12.18;;;;;;;20.31;53.51;99619.34;4991806;28;20129;-78
2023/06/18 04:08:46;;;;;;;19.27;12.93;;;;;;;20.29;53.35;99614.16;4992042;28;20062;-78
2023/06/18 04:11:12;;;;;;;18.13;13.35;;;;;;;20.30;53.85;99618.50;4991919;28;20062;-79
2023/06/18 04:13:40;;;;;;;18.45;12.48;;;;;;;20.31;53.74;99619.34;4991934;28;20050;-79
2023/06/18 04:16:06;;;;;;;19.40;13.02;;;;;;;20.30;53.65;99613.16;4991747;28;20062;-78
2023/06/18 04:18:32;;;;;;;19.15;13.18;;;;;;;20.31;53.79;99617.50;4991857;28;20070;-78
2023/06/18 04:20:59;;;;;;;20.60;13.35;;;;;;;20.33;53.84;99617.34;4991740;28;20412;-78
2023/06/18 04:23:25;;;;;;;19.02;12.63;;;;;;;20.35;54.12;99614.53;4991786;28;20058;-78
2023/06/18 04:25:52;;;;;;;17.77;12.00;;;;;;;20.37;54.25;99610.69;4991277;28;20272;-78
2023/06/18 04:28:20;;;;;;;15.52;11.82;;;;;;;20.42;54.64;99612.91;4991574;28;20077;-78
2023/06/18 04:30:46;;;;;;;17.33;11.90;;;;;;;20.47;54.33;99607.09;4974545;28;20072;-78
2023/06/18 04:33:13;;;;;;;17.95;12.07;;;;;;;20.50;54.13;99612.97;4991739;28;20054;-78
2023/06/18 04:35:39;;;;;;;21.48;12.98;;;;;;;20.53;54.22;99617.19;4991482;28;20493;-78
2023/06/18 04:38:06;;;;;;;15.32;12.27;;;;;;;20.55;54.24;99615.16;4991295;28;20058;-78
2023/06/18 04:40:33;;;;;;;17.45;12.40;;;;;;;20.58;54.32;99614.88;4991369;28;20061;-78
2023/06/18 04:42:59;;;;;;;16.75;12.13;;;;;;;20.60;54.10;99612.03;4991784;28;20058;-78
2023/06/18 04:45:25;;;;;;;18.67;12.77;;;;;;;20.64;54.35;99616.09;4990628;28;20070;-78
2023/06/18 04:47:52;;;;;;;16.42;12.18;;;;;;;20.65;54.49;99618.59;4991061;28;20058;-78
2023/06/18 04:50:18;;;;;;;17.05;12.63;;;;;;;20.68;54.57;99617.44;4973876;28;20072;-78
2023/06/18 04:52:45;;;;;;;17.67;11.30;;;;;;;20.69;54.76;99619.97;4991255;28;20062;-78
2023/06/18 04:55:11;;;;;;;17.60;12.07;;;;;;;20.74;54.72;99621.34;4991096;28;20054;-78
2023/06/18 04:57:39;;;;;;;15.75;12.00;;;;;;;20.75;54.88;99614.97;4990929;28;20493;-78
2023/06/18 05:00:06;;;;;;;15.30;11.65;;;;;;;20.79;54.85;99625.19;4991150;28;20069;-78
2023/06/18 05:02:34;;;;;;;16.88;12.57;;;;;;;20.83;55.32;99620.38;4991460;28;20054;-78
2023/06/18 05:05:00;;;;;;;17.02;11.88;;;;;;;20.87;54.96;99619.09;4991309;28;20083;-78
2023/06/18 05:07:27;;;;;;;15.65;11.32;;;;;;;20.90;55.36;99621.44;4991096;28;20058;-78
2023/06/18 05:09:53;;;;;;;16.70;11.23;;;;;;;20.95;55.00;99615.63;4990949;28;20417;-78
2023/06/18 05:12:20;;;;;;;15.38;10.93;;;;;;;20.99;55.04;99621.50;4989984;28;20056;-78
2023/06/18 05:14:46;;;;;;;14.80;11.85;;;;;;;21.04;55.28;99632.56;4991264;28;20058;-78
2023/06/18 05:17:12;;;;;;;15.07;11.70;;;;;;;21.10;55.47;99629.25;4973778;28;20062;-78
2023/06/18 05:19:39;;;;;;;16.48;11.93;;;;;;;21.16;55.22;99628.59;4973940;28;20054;-78
2023/06/18 05:22:05;;;;;;;12.40;10.23;;;;;;;21.23;54.90;99639.50;5022814;23;20066;-80
2023/06/18 05:24:32;;;;;;;14.80;10.13;;;;;;;21.29;54.76;99635.34;4971174;28;20069;-80
2023/06/18 05:26:58;;;;;;;14.73;10.98;;;;;;;21.36;54.37;99633.72;4971397;28;20077;-80
2023/06/18 05:29:25;;;;;;;12.88;11.27;;;;;;;21.42;54.69;99633.06;4971416;28;20055;-80
2023/06/18 05:31:52;;;;;;;15.70;11.25;;;;;;;21.51;54.77;99646.47;4953594;28;20474;-80
2023/06/18 05:34:18;;;;;;;14.90;11.15;;;;;;;21.58;54.60;99650.19;4951983;29;20596;-80
2023/06/18 05:36:44;;;;;;;13.95;11.10;;;;;;;21.65;54.43;99645.88;4951865;29;20090;-80
2023/06/18 05:39:11;;;;;;;16.85;11.25;;;;;;;21.72;54.09;99652.28;4934805;29;20075;-80
2023/06/18 05:41:37;;;;;;;14.43;11.95;;;;;;;21.81;54.28;99652.28;4947799;28;20679;-82
2023/06/18 05:44:04;;;;;;;14.55;11.20;;;;;;;21.89;54.23;99655.00;4971205;28;20074;-81
2023/06/18 05:46:31;;;;;;;15.30;10.98;;;;;;;21.96;54.50;99656.03;4970334;28;20086;-81
2023/06/18 05:48:57;;;;;;;17.92;10.65;;;;;;;22.05;53.94;99653.38;4969511;28;20579;-81
2023/06/18 05:51:24;;;;;;;14.63;11.55;;;;;;;22.13;53.96;99656.06;4969876;28;20047;-81
2023/06/18 05:53:50;;;;;;;13.23;11.75;;;;;;;22.22;53.77;99655.06;4952673;28;20483;-81
2023/06/18 05:56:17;;;;;;;14.45;11.10;;;;;;;22.30;53.78;99653.38;4969913;28;20429;-81
2023/06/18 05:58:43;;;;;;;12.88;10.57;;;;;;;22.37;53.69;99651.69;4973307;28;20086;-81
2023/06/18 06:01:10;;;;;;;13.45;10.55;;;;;;;22.44;53.27;99657.22;4973076;28;20126;-81
2023/06/18 06:03:36;;;;;;;12.63;9.57;;;;;;;22.52;53.49;99652.72;4957599;28;20469;-81
2023/06/18 06:06:03;;;;;;;12.23;9.90;;;;;;;22.59;53.50;99658.28;4974358;28;20505;-81
2023/06/18 06:08:30;;;;;;;13.70;10.85;;;;;;;22.67;53.76;99657.41;4957437;28;20054;-81
2023/06/18 06:10:56;;;;;;;13.13;10.73;;;;;;;22.74;53.51;99658.44;4957219;28;20051;-81
2023/06/18 06:13:23;;;;;;;11.25;10.02;;;;;;;22.83;52.94;99661.94;4974211;28;20047;-79
2023/06/18 06:15:49;;;;;;;13.98;10.05;;;;;;;22.91;53.07;99666.44;4956923;28;20137;-81
2023/06/18 06:18:16;;;;;;;10.98;9.88;;;;;;;22.99;52.74;99663.72;4957130;28;20065;-79
2023/06/18 06:20:43;;;;;;;13.73;10.23;;;;;;;23.08;52.48;99666.41;4973909;28;20436;-80
2023/06/18 06:23:09;;;;;;;12.77;10.13;;;;;;;23.16;53.14;99666.38;4974189;28;20059;-81
2023/06/18 06:25:36;;;;;;;12.70;9.60;;;;;;;23.26;52.57;99671.56;4957050;28;20058;-81
2023/06/18 06:28:03;;;;;;;15.45;10.10;;;;;;;23.32;52.41;99661.97;4956799;28;20061;-81
2023/06/18 06:30:30;;;;;;;13.68;10.23;;;;;;;23.40;52.15;99672.72;4974172;28;20141;-81
2023/06/18 06:32:56;;;;;;;10.27;9.23;;;;;;;23.48;51.81;99674.53;4973854;28;20091;-81
2023/06/18 06:35:23;;;;;;;9.80;8.68;;;;;;;23.56;51.96;99669.13;4973769;28;20058;-81
2023/06/18 06:37:50;;;;;;;12.20;9.48;;;;;;;23.64;52.21;99677.16;4973709;28;20119;-81
2023/06/18 06:40:17;;;;;;;11.38;9.23;;;;;;;23.72;51.67;99672.72;4972348;28;20054;-81
2023/06/18 06:42:43;;;;;;;12.55;9.68;;;;;;;23.80;51.22;99672.69;4971930;28;20556;-81
2023/06/18 06:45:10;;;;;;;11.18;9.35;;;;;;;23.87;51.40;99670.97;4971982;28;20055;-81
2023/06/18 06:47:37;;;;;;;10.60;8.63;;;;;;;23.95;50.80;99670.09;4954929;28;20147;-81
2023/06/18 06:50:04;;;;;;;13.90;9.00;;;;;;;24.02;50.66;99667.50;4972057;28;20057;-81
2023/06/18 06:52:31;;;;;;;11.25;9.30;;;;;;;24.11;51.14;99671.03;4972076;28;20137;-81
2023/06/18 06:54:57;;;;;;;10.55;8.63;;;;;;;24.18;51.17;99680.06;4973558;28;20055;-81
2023/06/18 06:57:23;;;;;;;10.10;8.98;;;;;;;24.26;50.10;99671.91;4973522;28;20053;-81
2023/06/18 06:59:50;;;;;;;11.18;8.85;;;;;;;24.34;50.13;99673.72;4972577;28;20097;-81
2023/06/18 07:02:17;;;;;;;10.02;8.65;;;;;;;24.42;50.11;99670.13;4972265;28;20065;-81
2023/06/18 07:04:47;;;;;;;10.98;8.70;;;;;;;24.51;50.01;99684.34;4973548;28;20054;-81
2023/06/18 07:07:14;;;;;;;9.60;8.60;;;;;;;24.57;49.80;99679.09;4973489;28;20582;-81
2023/06/18 07:09:41;;;;;;;9.55;8.18;;;;;;;24.66;50.31;99676.28;4972934;28;20057;-81
2023/06/18 07:12:08;;;;;;;12.85;8.20;;;;;;;24.73;49.80;99671.88;4956010;28;20502;-81
2023/06/18 07:14:37;;;;;;;10.00;7.72;;;;;;;24.81;50.09;99674.47;4973182;28;20093;-81
2023/06/18 07:17:04;;;;;;;11.07;8.95;;;;;;;24.90;50.22;99666.34;4955933;28;20058;-81
2023/06/18 07:19:30;;;;;;;9.88;8.50;;;;;;;25.00;49.93;99666.91;4956148;28;20520;-81
2023/06/18 07:21:57;;;;;;;9.07;8.18;;;;;;;25.07;49.90;99667.84;4973371;28;20057;-81
2023/06/18 07:24:23;;;;;;;11.85;9.00;;;;;;;25.16;50.28;99668.63;4972889;28;20078;-81
2023/06/18 07:26:50;;;;;;;9.07;8.13;;;;;;;25.25;49.72;99669.34;4972667;28;20051;-82
2023/06/18 07:29:16;;;;;;;11.32;9.75;;;;;;;25.33;49.35;99669.25;4973170;28;20059;-82
2023/06/18 07:31:43;;;;;;;10.23;8.95;;;;;;;25.41;49.54;99670.19;4972595;28;20101;-81
2023/06/18 07:34:09;;;;;;;9.25;8.35;;;;;;;25.49;49.29;99670.09;4955929;28;21575;-81
2023/06/18 07:36:36;;;;;;;10.98;9.80;;;;;;;25.57;49.34;99667.28;4972720;28;20058;-81
2023/06/18 07:39:02;;;;;;;10.35;9.30;;;;;;;25.65;49.11;99677.16;4973019;28;20399;-81
2023/06/18 07:41:29;;;;;;;10.88;8.65;;;;;;;25.71;48.93;99673.69;4956038;28;20093;-81
2023/06/18 07:43:57;;;;;;;12.07;9.18;;;;;;;25.80;48.47;99677.13;4973036;28;20137;-81
2023/06/18 07:46:23;;;;;;;11.80;8.75;;;;;;;25.87;48.61;99675.31;4972660;28;20094;-82
2023/06/18 07:48:50;;;;;;;10.55;9.02;;;;;;;25.95;47.97;99668.97;4972084;28;20241;-82
2023/06/18 07:51:17;;;;;;;9.80;8.60;;;;;;;26.03;47.67;99678.81;4971421;28;20059;-82
2023/06/18 07:53:43;;;;;;;14.65;7.82;;;;;;;26.10;47.57;99665.38;4972598;28;20065;-82
2023/06/18 07:56:10;;;;;;;10.23;7.97;;;;;;;26.19;47.45;99672.31;4972156;28;20500;-82
2023/06/18 07:58:37;;;;;;;8.93;7.20;;;;;;;26.27;46.94;99669.53;4971200;28;20061;-82
2023/06/18 08:01:03;;;;;;;8.07;6.93;;;;;;;26.35;46.27;99673.94;4955366;28;20086;-82
2023/06/18 08:03:30;;;;;;;8.25;7.38;;;;;;;26.43;46.51;99677.53;4972957;28;20082;-81
2023/06/18 08:05:56;;;;;;;8.07;7.15;;;;;;;26.50;45.96;99675.75;4972486;28;20161;-82
2023/06/18 08:08:23;;;;;;;8.25;7.45;;;;;;;26.58;45.52;99678.31;4972784;28;20069;-81
2023/06/18 08:10:50;;;;;;;10.63;7.60;;;;;;;26.66;44.81;99666.53;4972379;28;20090;-82
2023/06/18 08:13:17;;;;;;;7.60;6.70;;;;;;;26.72;45.25;99668.44;4972517;28;20058;-82
2023/06/18 08:15:44;;;;;;;7.68;6.88;;;;;;;26.81;44.90;99663.72;4972366;28;20078;-82
2023/06/18 08:18:10;;;;;;;10.10;7.20;;;;;;;26.88;44.41;99670.00;4972518;28;20097;-82
2023/06/18 08:20:37;;;;;;;10.57;7.65;;;;;;;26.98;45.02;99668.88;4954478;28;20141;-82
2023/06/18 08:23:03;;;;;;;8.88;6.82;;;;;;;27.06;44.68;99666.81;4972330;28;20082;-82
2023/06/18 08:25:30;;;;;;;7.68;6.70;;;;;;;27.18;44.43;99663.56;4972483;28;20059;-82
2023/06/18 08:27:58;;;;;;;6.63;5.95;;;;;;;27.28;43.99;99660.53;4971809;28;20059;-80
2023/06/18 08:30:25;;;;;;;6.85;5.50;;;;;;;27.37;42.99;99653.06;4972502;28;20082;-81
2023/06/18 08:32:51;;;;;;;7.55;6.28;;;;;;;27.48;42.57;99665.16;4955122;28;20569;-81
2023/06/18 08:35:19;;;;;;;8.98;6.18;;;;;;;27.57;42.67;99653.97;4955102;28;20058;-82
2023/06/18 08:37:46;;;;;;;7.28;6.20;;;;;;;27.66;42.54;99660.06;4954653;28;20055;-80
2023/06/18 08:40:14;;;;;;;9.18;5.80;;;;;;;27.78;42.37;99649.50;4954931;28;20114;-80
2023/06/18 08:42:40;;;;;;;7.68;6.25;;;;;;;27.88;41.58;99645.56;4972155;28;20478;-80
2023/06/18 08:45:17;;;;;;;8.10;5.80;;;;;;;27.99;42.06;99650.38;4972435;28;20054;-79
2023/06/18 08:47:48;;;;;;;7.32;6.32;;;;;;;28.08;41.63;99653.72;4971761;28;20063;-79
2023/06/18 08:50:17;;;;;;;7.32;6.47;;;;;;;28.20;41.01;99645.81;4971941;28;20425;-79
2023/06/18 08:52:48;;;;;;;8.45;6.75;;;;;;;28.30;41.30;99648.16;4954808;28;20067;-80
2023/06/18 08:55:16;;;;;;;6.68;6.05;;;;;;;28.42;41.09;99649.19;4971943;28;20138;-80
2023/06/18 08:57:53;;;;;;;9.75;6.43;;;;;;;28.52;40.89;99648.75;4954818;28;20137;-80
2023/06/18 09:00:21;;;;;;;7.13;6.00;;;;;;;28.63;41.62;99650.00;4954028;28;20051;-80
2023/06/18 09:02:48;;;;;;;7.90;5.65;;;;;;;28.73;41.62;99647.72;4954715;28;20059;-80
2023/06/18 09:05:15;;;;;;;7.30;5.63;;;;;;;28.85;40.15;99647.06;4971679;28;20054;-80
2023/06/18 09:07:42;;;;;;;6.15;5.55;;;;;;;28.92;38.85;99645.22;4972050;28;20146;-80
2023/06/18 09:10:10;;;;;;;6.40;5.65;;;;;;;29.02;38.98;99646.63;4971767;28;20581;-80
2023/06/18 09:12:36;;;;;;;5.82;5.20;;;;;;;29.10;39.10;99643.69;4971812;28;20488;-80
2023/06/18 09:15:03;;;;;;;7.22;5.57;;;;;;;29.19;38.17;99642.41;4971957;28;20480;-80
2023/06/18 09:17:30;;;;;;;6.20;5.57;;;;;;;29.28;38.66;99643.03;4971841;28;20086;-80
2023/06/18 09:19:57;;;;;;;6.30;5.38;;;;;;;29.38;38.51;99634.44;4971575;28;20466;-80
2023/06/18 09:22:24;;;;;;;5.55;4.97;;;;;;;29.47;38.14;99633.16;4954205;28;20047;-80
2023/06/18 09:24:58;;;;;;;6.90;4.97;;;;;;;29.56;38.40;99638.34;4954608;28;20154;-80
2023/06/18 09:27:33;;;;;;;5.82;5.22;;;;;;;29.64;38.58;99638.09;4971597;28;20510;-80
2023/06/18 09:30:00;;;;;;;6.82;5.45;;;;;;;29.78;38.43;99647.84;4954597;28;20146;-80
2023/06/18 09:32:27;;;;;;;6.57;5.97;;;;;;;29.88;37.51;99633.78;4967655;28;20053;-79
2023/06/18 09:34:54;;;;;;;6.18;5.57;;;;;;;29.98;38.38;99627.88;4975295;28;20055;-79
2023/06/18 09:37:22;;;;;;;6.43;5.82;;;;;;;30.08;37.16;99627.38;4974192;28;20086;-80
2023/06/18 09:39:52;;;;;;;6.43;5.57;;;;;;;30.15;36.80;99633.63;4975383;28;20061;-80
2023/06/18 09:42:29;;;;;;;6.78;5.45;;;;;;;30.23;36.91;99631.72;4975390;28;20082;-80
2023/06/18 09:44:57;;;;;;;6.13;5.53;;;;;;;30.33;36.88;99634.75;4957901;28;20145;-80
2023/06/18 09:47:24;;;;;;;6.75;5.35;;;;;;;30.40;36.32;99635.53;4975028;28;20476;-80
2023/06/18 09:49:50;;;;;;;8.55;5.30;;;;;;;30.48;36.49;99636.28;4974938;28;20579;-80
2023/06/18 09:52:17;;;;;;;6.50;5.85;;;;;;;30.53;37.05;99634.56;4939307;29;20138;-80
2023/06/18 09:54:44;;;;;;;6.85;4.93;;;;;;;30.59;36.61;99635.56;4955796;28;20059;-80
2023/06/18 09:57:12;;;;;;;6.07;5.47;;;;;;;30.66;36.49;99647.22;4938663;29;20069;-80
2023/06/18 09:59:39;;;;;;;6.80;5.43;;;;;;;30.74;37.20;99635.25;4955927;28;20142;-80
2023/06/18 10:02:09;;;;;;;6.00;5.50;;;;;;;30.84;35.72;99639.31;4975043;28;20082;-80
2023/06/18 10:04:35;;;;;;;4.95;4.50;;;;;;;30.92;34.85;99636.31;4974888;28;20055;-80
2023/06/18 10:07:04;;;;;;;5.53;4.70;;;;;;;30.99;35.06;99638.97;4957466;28;20059;-80
2023/06/18 10:09:38;;;;;;;7.05;4.72;;;;;;;31.05;33.82;99633.44;4974825;28;20134;-80
2023/06/18 10:12:06;;;;;;;5.47;4.90;;;;;;;31.14;34.28;99635.88;4957334;28;20135;-80
2023/06/18 10:14:33;;;;;;;5.10;4.70;;;;;;;31.19;34.33;99636.84;4957694;28;20055;-80
2023/06/18 10:17:25;;;;;;;5.22;4.72;;;;;;;31.23;35.06;99637.22;4974657;28;20059;-80
2023/06/18 10:20:03;;;;;;;5.50;4.90;;;;;;;31.35;33.85;99631.06;4957625;28;20146;-80
2023/06/18 10:22:37;;;;;;;4.95;4.45;;;;;;;31.44;33.88;99633.22;4957120;28;20510;-80
2023/06/18 10:25:07;;;;;;;5.70;4.13;;;;;;;31.50;33.06;99631.47;4957189;28;20137;-80
2023/06/18 10:27:35;;;;;;;5.05;4.45;;;;;;;31.58;33.97;99633.88;4974515;28;20059;-80
2023/06/18 10:30:03;;;;;;;5.13;4.47;;;;;;;31.65;33.08;99635.69;4957239;28;20429;-80
2023/06/18 10:32:32;;;;;;;5.40;4.90;;;;;;;31.70;32.05;99625.75;4974094;28;20109;-80
2023/06/18 10:35:01;;;;;;;4.82;4.43;;;;;;;31.78;31.88;99621.03;4956926;28;20065;-80
2023/06/18 10:37:34;;;;;;;5.70;4.68;;;;;;;31.85;31.55;99622.59;4974308;28;20059;-80
2023/06/18 10:40:05;;;;;;;5.25;4.75;;;;;;;31.94;32.24;99623.13;4974554;28;20086;-81
2023/06/18 10:42:52;;;;;;;;;;;;;;;32.01;34.16;99614.88;4973878;28;20051;-81
2023/06/18 10:45:19;;;;;;;4.97;4.53;;;;;;;32.20;32.76;99607.44;4973657;28;20012;-79
2023/06/18 10:47:46;;;;;;;4.85;4.30;;;;;;;32.27;31.81;99612.78;4974067;28;20063;-83
2023/06/18 10:50:17;;;;;;;5.85;4.90;;;;;;;32.31;31.43;99607.69;4974195;28;20133;-83
2023/06/18 10:52:50;;;;;;;5.00;4.43;;;;;;;32.34;31.64;99599.03;4957533;28;20125;-83
2023/06/18 10:55:26;;;;;;;8.95;4.60;;;;;;;32.30;31.10;99608.75;4957053;28;20066;-83
2023/06/18 10:58:02;;;;;;;4.95;4.30;;;;;;;32.26;30.48;99594.78;4957205;28;20141;-83
2023/06/18 11:00:44;;;;;;;6.90;5.30;;;;;;;32.23;30.99;99601.53;4973893;28;20106;-83
2023/06/18 11:03:14;;;;;;;5.68;4.80;;;;;;;32.22;31.08;99601.75;4956232;28;20051;-83
2023/06/18 11:05:51;;;;;;;5.35;4.95;;;;;;;32.21;31.08;99592.75;4956085;28;20113;-83
2023/06/18 11:08:35;;;;;;;5.50;5.00;;;;;;;32.34;32.04;99599.03;4973576;28;20525;-83
2023/06/18 11:11:07;;;;;;;7.55;5.25;;;;;;;32.60;32.81;99597.78;4973852;28;20155;-83
2023/06/18 11:13:53;;;;;;;7.78;4.93;;;;;;;32.93;32.87;99591.91;4973746;28;20091;-83
2023/06/18 11:16:23;;;;;;;5.13;4.63;;;;;;;33.33;31.36;99585.66;4946269;28;20054;-83
2023/06/18 11:18:53;;;;;;;4.93;4.43;;;;;;;33.69;30.82;99587.41;4973653;28;20067;-83
2023/06/18 11:21:27;;;;;;;5.63;4.47;;;;;;;34.05;29.78;99588.03;4974284;23;20054;-80
2023/06/18 11:23:55;;;;;;;5.00;4.50;;;;;;;34.37;31.47;99589.34;4992569;28;20440;-79
2023/06/18 11:26:21;;;;;;;5.10;4.55;;;;;;;34.68;29.88;99585.19;4974957;28;20138;-79
2023/06/18 11:28:49;;;;;;;5.10;4.55;;;;;;;35.00;29.70;99577.38;4973252;28;20066;-79